Time;durP1;ratioP1;P1;durP2;ratioP2;P2;SDS_P1;SDS_P2;PMS_P1;PMS_P2;Temp;Humidity;BMP_temperature;BMP_pressure;BME280_temperature;BME280_humidity;BME280_pressure;Samples;Min_cycle;Max_cycle;Signal;HPM_P1;HPM_P2
2023/04/19 00:01:12;;;;;;;0.00;0.00;;;;;;;6.34;75.86;101250.06;6210720;23;20019;-74
2023/04/19 00:03:38;;;;;;;0.00;0.00;;;;;;;6.30;76.94;101256.97;6214125;23;20011;-74
2023/04/19 00:06:03;;;;;;;0.00;0.00;;;;;;;6.17;76.29;101241.59;6262300;22;20004;-76
2023/04/19 00:08:29;;;;;;;0.00;0.00;;;;;;;6.10;76.61;101238.06;6210565;23;20015;-76
2023/04/19 00:10:54;;;;;;;0.00;0.00;;;;;;;6.09;77.05;101247.28;6238509;22;20069;-75
2023/04/19 00:13:20;;;;;;;0.00;0.00;;;;;;;6.14;76.93;101255.59;6187003;23;20008;-75
2023/04/19 00:15:46;;;;;;;0.00;0.00;;;;;;;6.13;76.74;101240.34;6162105;23;20331;-76
2023/04/19 00:18:14;;;;;;;0.00;0.00;;;;;;;6.16;77.79;101237.19;6235848;23;20005;-77
2023/04/19 00:20:39;;;;;;;0.00;0.00;;;;;;;6.22;77.11;101230.91;6211978;23;20000;-77
2023/04/19 00:23:05;;;;;;;0.00;0.00;;;;;;;6.36;77.93;101231.66;6185226;23;20066;-77
2023/04/19 00:25:39;;;;;;;0.03;0.03;;;;;;;6.29;77.30;101207.25;6185357;23;20016;-78
2023/04/19 00:28:05;;;;;;;0.00;0.00;;;;;;;6.43;77.57;101227.00;6215767;23;20009;-77
2023/04/19 00:30:30;;;;;;;0.00;0.00;;;;;;;6.54;77.71;101235.53;6158270;23;20011;-77
2023/04/19 00:32:56;;;;;;;0.00;0.00;;;;;;;6.57;78.21;101235.06;6214245;23;20012;-77
2023/04/19 00:35:21;;;;;;;0.00;0.00;;;;;;;6.72;77.38;101224.72;6184083;23;20431;-78
2023/04/19 00:37:47;;;;;;;0.00;0.00;;;;;;;6.72;77.96;101230.16;6214620;23;20333;-77
2023/04/19 00:40:12;;;;;;;0.00;0.00;;;;;;;6.52;77.45;101213.19;6184401;23;20012;-78
2023/04/19 00:42:41;;;;;;;0.00;0.00;;;;;;;6.36;77.60;101199.06;6164528;23;20391;-77
2023/04/19 00:45:21;;;;;;;0.00;0.00;;;;;;;6.29;78.68;101195.53;6214622;22;20004;-78
2023/04/19 00:47:46;;;;;;;0.05;0.05;;;;;;;6.31;78.68;101211.63;6212264;23;20018;-76
2023/04/19 00:50:12;;;;;;;0.00;0.00;;;;;;;6.36;79.64;101215.34;6165185;23;20082;-78
2023/04/19 00:52:38;;;;;;;0.00;0.00;;;;;;;6.38;78.69;101220.56;6234472;23;20015;-77
2023/04/19 00:55:05;;;;;;;0.00;0.00;;;;;;;6.35;79.67;101213.72;6215093;23;20315;-78
2023/04/19 00:57:30;;;;;;;0.00;0.00;;;;;;;6.24;79.81;101195.38;6185352;23;20703;-77
2023/04/19 00:59:56;;;;;;;0.00;0.00;;;;;;;6.32;79.62;101195.09;6164122;23;20483;-78
2023/04/19 01:02:22;;;;;;;0.00;0.00;;;;;;;6.37;79.51;101202.63;6210146;23;20172;-78
2023/04/19 01:04:47;;;;;;;0.00;0.00;;;;;;;6.39;80.38;101203.22;6189437;23;20099;-78
2023/04/19 01:07:12;;;;;;;0.00;0.00;;;;;;;6.39;80.42;101192.38;6188622;23;20012;-76
2023/04/19 01:09:45;;;;;;;0.00;0.00;;;;;;;6.34;80.64;101184.88;6186060;23;20004;-76
2023/04/19 01:12:15;;;;;;;0.00;0.00;;;;;;;6.50;80.39;101188.09;6225822;23;20078;-78
2023/04/19 01:14:41;;;;;;;0.00;0.00;;;;;;;6.57;81.13;101189.72;6234210;23;20008;-77
2023/04/19 01:17:07;;;;;;;0.00;0.00;;;;;;;6.64;82.22;101173.34;6214100;23;20022;-78
2023/04/19 01:19:37;;;;;;;0.00;0.00;;;;;;;6.74;80.95;101173.69;6233824;23;20036;-76
2023/04/19 01:22:02;;;;;;;0.00;0.00;;;;;;;6.89;80.83;101181.53;6190740;23;20054;-77
2023/04/19 01:24:29;;;;;;;0.00;0.00;;;;;;;6.89;80.99;101172.53;6210479;23;20012;-76
2023/04/19 01:26:55;;;;;;;0.00;0.00;;;;;;;6.91;81.28;101173.16;6240404;22;20150;-77
2023/04/19 01:29:21;;;;;;;0.00;0.00;;;;;;;6.92;80.78;101170.19;6239912;22;20046;-77
2023/04/19 01:31:50;;;;;;;0.00;0.00;;;;;;;6.93;81.50;101171.84;6210695;23;20012;-77
2023/04/19 01:34:16;;;;;;;0.00;0.00;;;;;;;6.99;81.19;101170.13;6235299;23;20012;-78
2023/04/19 01:36:41;;;;;;;0.00;0.00;;;;;;;7.14;81.83;101165.16;6235676;23;20100;-77
2023/04/19 01:39:07;;;;;;;0.00;0.00;;;;;;;7.19;81.27;101163.66;6211727;23;20015;-77
2023/04/19 01:41:32;;;;;;;0.00;0.00;;;;;;;7.19;81.31;101153.59;6239364;23;20011;-76
2023/04/19 01:43:59;;;;;;;0.00;0.00;;;;;;;7.41;81.84;101173.03;6209534;23;20445;-77
2023/04/19 01:46:25;;;;;;;0.00;0.00;;;;;;;7.44;81.45;101161.69;6215331;23;20509;-77
2023/04/19 01:48:50;;;;;;;0.00;0.00;;;;;;;7.50;81.81;101171.69;6235778;23;20003;-76
2023/04/19 01:51:16;;;;;;;0.00;0.00;;;;;;;7.55;81.86;101167.44;6212061;23;20016;-77
2023/04/19 01:53:41;;;;;;;0.00;0.00;;;;;;;7.55;81.84;101164.72;6214867;23;20015;-76
2023/04/19 01:56:07;;;;;;;0.00;0.00;;;;;;;7.56;82.09;101152.78;6234886;23;20004;-77
2023/04/19 01:58:32;;;;;;;0.00;0.00;;;;;;;7.69;82.31;101174.38;6241055;22;20004;-76
2023/04/19 02:00:58;;;;;;;0.00;0.00;;;;;;;7.74;81.94;101171.81;6234701;23;20374;-76
2023/04/19 02:03:23;;;;;;;0.00;0.00;;;;;;;7.76;82.28;101164.25;6214453;23;20027;-77
2023/04/19 02:05:48;;;;;;;0.00;0.00;;;;;;;7.80;82.35;101162.72;6236400;23;20111;-77
2023/04/19 02:08:14;;;;;;;0.00;0.00;;;;;;;7.73;82.16;101145.66;6188997;23;20394;-78
2023/04/19 02:10:39;;;;;;;0.00;0.00;;;;;;;7.76;82.33;101147.91;6214958;23;20011;-78
2023/04/19 02:13:05;;;;;;;0.00;0.00;;;;;;;7.79;82.30;101152.88;6207657;23;20090;-78
2023/04/19 02:15:30;;;;;;;0.00;0.00;;;;;;;7.83;82.52;101151.38;6163709;23;20047;-78
2023/04/19 02:18:03;;;;;;;0.00;0.00;;;;;;;7.68;82.55;101129.16;6183810;23;20662;-75
2023/04/19 02:20:36;;;;;;;0.00;0.00;;;;;;;7.59;83.45;101136.81;6239434;23;20011;-79
2023/04/19 02:23:01;;;;;;;0.00;0.00;;;;;;;7.46;83.57;101129.66;6231086;23;20579;-77
2023/04/19 02:25:27;;;;;;;0.00;0.00;;;;;;;7.40;83.99;101121.56;6240116;23;20347;-78
2023/04/19 02:27:54;;;;;;;0.00;0.00;;;;;;;7.33;84.24;101117.03;6211483;23;20008;-78
2023/04/19 02:30:27;;;;;;;0.00;0.00;;;;;;;7.31;84.96;101112.88;6213610;23;20050;-78
2023/04/19 02:32:53;;;;;;;0.00;0.00;;;;;;;7.34;84.98;101106.97;6210096;23;20028;-77
2023/04/19 02:35:19;;;;;;;0.00;0.00;;;;;;;7.46;85.88;101117.94;6159633;23;20011;-78
2023/04/19 02:37:44;;;;;;;0.00;0.00;;;;;;;7.62;84.99;101117.31;6235847;23;19999;-79
2023/04/19 02:40:10;;;;;;;0.00;0.00;;;;;;;7.75;84.64;101118.19;6182074;23;20095;-78
2023/04/19 02:42:36;;;;;;;0.00;0.00;;;;;;;7.89;84.44;101119.66;6185740;23;20008;-77
2023/04/19 02:45:01;;;;;;;0.00;0.00;;;;;;;8.03;83.97;101123.03;6212855;23;20019;-78
2023/04/19 02:47:27;;;;;;;0.00;0.00;;;;;;;8.09;84.61;101130.28;6157466;23;20366;-77
2023/04/19 02:49:52;;;;;;;0.00;0.00;;;;;;;8.29;84.40;101129.97;6214374;23;20008;-77
2023/04/19 02:52:17;;;;;;;0.00;0.00;;;;;;;8.44;84.04;101132.31;6184751;23;20012;-76
2023/04/19 02:54:44;;;;;;;0.00;0.00;;;;;;;8.43;83.71;101125.16;6237758;23;20491;-75
2023/04/19 02:57:09;;;;;;;0.00;0.00;;;;;;;8.49;83.38;101116.06;6213903;23;20090;-76
2023/04/19 02:59:34;;;;;;;0.00;0.00;;;;;;;8.49;83.25;101102.44;6158899;23;20028;-77
2023/04/19 03:02:00;;;;;;;0.00;0.00;;;;;;;8.57;82.98;101109.41;6164285;23;20008;-75
2023/04/19 03:04:25;;;;;;;0.03;0.03;;;;;;;8.53;83.42;101113.72;6182669;23;20496;-76
2023/04/19 03:06:51;;;;;;;0.00;0.00;;;;;;;8.43;83.07;101108.78;6187897;23;20019;-76
2023/04/19 03:09:17;;;;;;;0.00;0.00;;;;;;;8.44;83.32;101109.63;6183638;23;20004;-75
2023/04/19 03:11:42;;;;;;;0.00;0.00;;;;;;;8.41;83.01;101115.53;6198916;22;20020;-75
2023/04/19 03:14:07;;;;;;;0.00;0.00;;;;;;;8.28;83.56;101113.84;6214643;22;20027;-76
2023/04/19 03:16:33;;;;;;;0.00;0.00;;;;;;;8.16;83.58;101114.69;6236862;22;20015;-75
2023/04/19 03:18:58;;;;;;;0.00;0.00;;;;;;;8.09;83.70;101113.94;6219387;22;20415;-76
2023/04/19 03:21:26;;;;;;;0.00;0.00;;;;;;;8.00;84.43;101110.72;6237620;22;20456;-75
2023/04/19 03:23:52;;;;;;;0.00;0.00;;;;;;;7.97;83.80;101113.06;6194171;22;20362;-76
2023/04/19 03:26:17;;;;;;;0.00;0.00;;;;;;;7.86;83.68;101115.50;6188606;22;20019;-76
2023/04/19 03:28:45;;;;;;;0.00;0.00;;;;;;;7.77;84.28;101110.59;6192615;22;20004;-75
2023/04/19 03:31:10;;;;;;;0.00;0.00;;;;;;;7.63;84.10;101107.25;6219121;22;20014;-75
2023/04/19 03:33:38;;;;;;;0.10;0.10;;;;;;;7.54;84.68;101100.47;6214041;22;20074;-75
2023/04/19 03:36:04;;;;;;;0.00;0.00;;;;;;;7.53;84.71;101104.25;6268801;22;20046;-75
2023/04/19 03:38:29;;;;;;;0.00;0.00;;;;;;;7.59;85.10;101103.31;6213131;22;20004;-75
2023/04/19 03:40:56;;;;;;;0.00;0.00;;;;;;;7.70;84.98;101099.84;6218729;22;20015;-74
2023/04/19 03:43:23;;;;;;;0.00;0.00;;;;;;;7.78;84.85;101095.94;6193586;22;20004;-75
2023/04/19 03:45:49;;;;;;;0.00;0.00;;;;;;;7.92;84.91;101102.03;6189314;22;20014;-75
2023/04/19 03:48:14;;;;;;;0.00;0.00;;;;;;;8.07;84.34;101102.44;6217976;22;20007;-76
2023/04/19 03:50:40;;;;;;;0.00;0.00;;;;;;;8.15;83.56;101096.66;6239747;22;20061;-75
2023/04/19 03:53:05;;;;;;;0.00;0.00;;;;;;;8.23;83.99;101098.22;6243152;22;20326;-75
2023/04/19 03:55:30;;;;;;;0.00;0.00;;;;;;;8.29;83.76;101089.09;6214974;22;20022;-75
2023/04/19 03:57:56;;;;;;;0.00;0.00;;;;;;;8.27;83.81;101096.69;6269662;22;20000;-75
2023/04/19 04:00:22;;;;;;;0.00;0.00;;;;;;;8.11;83.31;101076.38;6245117;22;20370;-74
2023/04/19 04:02:47;;;;;;;0.00;0.00;;;;;;;8.35;83.27;101106.41;6242194;22;19999;-75
2023/04/19 04:05:13;;;;;;;0.00;0.00;;;;;;;8.42;82.88;101090.78;6244824;22;20019;-75
2023/04/19 04:07:38;;;;;;;0.00;0.00;;;;;;;8.60;82.95;101097.22;6240393;22;20026;-76
2023/04/19 04:10:04;;;;;;;0.00;0.00;;;;;;;8.67;82.60;101092.47;6220751;22;19999;-75
2023/04/19 04:12:29;;;;;;;0.00;0.00;;;;;;;8.73;81.85;101075.16;6269460;22;20047;-75
2023/04/19 04:14:55;;;;;;;0.00;0.00;;;;;;;8.83;81.29;101091.75;6192301;22;20498;-74
2023/04/19 04:17:23;;;;;;;0.00;0.00;;;;;;;8.89;81.81;101085.38;6220205;22;20011;-75
2023/04/19 04:19:49;;;;;;;0.00;0.00;;;;;;;8.91;81.04;101088.69;6215800;22;20015;-75
2023/04/19 04:22:15;;;;;;;0.00;0.00;;;;;;;8.77;81.25;101070.91;6270451;22;20003;-74
2023/04/19 04:24:41;;;;;;;0.00;0.00;;;;;;;8.74;80.73;101082.28;6213579;22;20457;-75
2023/04/19 04:27:09;;;;;;;0.00;0.00;;;;;;;8.50;81.41;101076.84;6243611;22;20003;-75
2023/04/19 04:29:38;;;;;;;0.00;0.00;;;;;;;8.37;82.02;101082.50;6240157;22;20010;-74
2023/04/19 04:32:09;;;;;;;0.00;0.00;;;;;;;8.35;81.91;101074.56;6243576;22;20019;-74
2023/04/19 04:34:36;;;;;;;0.00;0.00;;;;;;;8.37;82.24;101082.50;6271310;22;20015;-74
2023/04/19 04:37:02;;;;;;;0.00;0.00;;;;;;;8.39;82.21;101086.63;6240682;22;20427;-74
2023/04/19 04:39:28;;;;;;;0.00;0.00;;;;;;;8.33;81.66;101070.38;6271502;22;20091;-74
2023/04/19 04:41:56;;;;;;;0.00;0.00;;;;;;;8.41;82.29;101083.69;6239977;22;20000;-75
2023/04/19 04:44:22;;;;;;;0.00;0.00;;;;;;;8.48;81.89;101089.84;6193340;22;20011;-75
2023/04/19 04:46:47;;;;;;;0.00;0.00;;;;;;;8.49;81.31;101086.06;6217843;22;20007;-75
2023/04/19 04:49:12;;;;;;;0.00;0.00;;;;;;;8.44;81.68;101085.97;6266718;22;20086;-74
2023/04/19 04:51:38;;;;;;;0.00;0.00;;;;;;;8.35;81.71;101090.06;6195209;22;20011;-75
2023/04/19 04:54:04;;;;;;;0.00;0.00;;;;;;;8.27;81.88;101098.59;6189098;22;20008;-75
2023/04/19 04:56:30;;;;;;;0.00;0.00;;;;;;;8.16;82.13;101108.38;6245270;22;20062;-75
2023/04/19 04:58:56;;;;;;;0.00;0.00;;;;;;;8.04;82.33;101108.34;6240356;22;20015;-74
2023/04/19 05:01:22;;;;;;;0.00;0.00;;;;;;;7.89;83.07;101106.06;6217905;22;20007;-75
2023/04/19 05:03:48;;;;;;;0.00;0.00;;;;;;;7.76;82.80;101096.19;6242574;22;20011;-76
2023/04/19 05:06:16;;;;;;;0.00;0.00;;;;;;;7.78;83.06;101101.38;6237902;22;20594;-74
2023/04/19 05:08:41;;;;;;;0.00;0.00;;;;;;;7.82;83.16;101092.53;6245576;22;20004;-75
2023/04/19 05:11:07;;;;;;;0.00;0.00;;;;;;;7.89;83.67;101097.06;6240023;22;20038;-76
2023/04/19 05:13:33;;;;;;;0.00;0.00;;;;;;;7.85;82.84;101092.06;6243548;22;20015;-75
2023/04/19 05:15:59;;;;;;;0.00;0.00;;;;;;;8.00;83.29;101104.41;6240566;22;19999;-75
2023/04/19 05:18:24;;;;;;;0.00;0.00;;;;;;;8.00;83.18;101093.53;6219246;22;20010;-75
2023/04/19 05:20:49;;;;;;;0.00;0.00;;;;;;;8.06;83.02;101103.50;6192620;22;20086;-75
2023/04/19 05:23:15;;;;;;;0.00;0.00;;;;;;;8.18;83.13;101101.63;6238712;22;20050;-75
2023/04/19 05:25:41;;;;;;;0.00;0.00;;;;;;;8.28;82.94;101103.81;6219613;22;20008;-75
2023/04/19 05:28:06;;;;;;;0.00;0.00;;;;;;;8.35;82.90;101101.81;6240594;22;20004;-75
2023/04/19 05:30:31;;;;;;;0.00;0.00;;;;;;;8.39;82.38;101093.97;6244891;22;20012;-75
2023/04/19 05:32:57;;;;;;;0.00;0.00;;;;;;;8.44;82.43;101102.31;6192165;22;20011;-75
2023/04/19 05:35:23;;;;;;;0.00;0.00;;;;;;;8.49;82.10;101101.59;6217389;22;20050;-75
2023/04/19 05:37:49;;;;;;;0.00;0.00;;;;;;;8.53;82.58;101106.34;6244411;22;20426;-75
2023/04/19 05:40:28;;;;;;;0.00;0.00;;;;;;;8.61;82.70;101093.44;6242433;22;20030;-74
2023/04/19 05:42:53;;;;;;;0.00;0.00;;;;;;;8.68;82.24;101094.16;6244116;22;20011;-76
2023/04/19 05:45:20;;;;;;;0.00;0.00;;;;;;;8.78;81.92;101099.84;6190766;22;20000;-75
2023/04/19 05:47:46;;;;;;;0.00;0.00;;;;;;;8.94;81.68;101097.47;6241817;22;20038;-75
2023/04/19 05:50:13;;;;;;;0.00;0.00;;;;;;;9.01;81.18;101098.16;6271983;22;20004;-75
2023/04/19 05:52:39;;;;;;;0.00;0.00;;;;;;;9.07;81.21;101098.03;6212971;22;20014;-76
2023/04/19 05:55:04;;;;;;;0.00;0.00;;;;;;;9.23;80.78;101096.47;6244600;22;20369;-76
2023/04/19 05:57:30;;;;;;;0.00;0.00;;;;;;;9.28;80.63;101097.66;6187978;22;20003;-76
2023/04/19 05:59:55;;;;;;;0.00;0.00;;;;;;;9.38;80.74;101098.69;6243756;22;20011;-75
2023/04/19 06:02:21;;;;;;;0.00;0.00;;;;;;;9.55;80.31;101108.81;6189966;22;20014;-75
2023/04/19 06:04:56;;;;;;;0.00;0.00;;;;;;;9.46;79.38;101089.28;6242983;22;20098;-75
2023/04/19 06:07:32;;;;;;;0.00;0.00;;;;;;;9.59;79.74;101091.75;6240768;22;20450;-76
2023/04/19 06:10:18;;;;;;;0.00;0.00;;;;;;;9.69;79.52;101117.59;6218702;22;20014;-77
2023/04/19 06:12:43;;;;;;;0.00;0.00;;;;;;;9.67;79.20;101117.00;6212945;22;20077;-75
2023/04/19 06:15:10;;;;;;;0.00;0.00;;;;;;;9.70;79.38;101111.06;6244482;22;20007;-75
2023/04/19 06:17:36;;;;;;;0.00;0.00;;;;;;;9.61;79.45;101097.78;6189567;22;20022;-74
2023/04/19 06:20:08;;;;;;;0.00;0.00;;;;;;;9.65;79.16;101098.13;6267310;22;20360;-75
2023/04/19 06:22:43;;;;;;;0.00;0.00;;;;;;;9.74;79.14;101085.75;6267092;22;20078;-75
2023/04/19 06:25:09;;;;;;;0.00;0.00;;;;;;;10.02;78.35;101097.72;6267927;22;20008;-75
2023/04/19 06:27:37;;;;;;;0.00;0.00;;;;;;;9.91;78.51;101074.81;6270434;22;20030;-75
2023/04/19 06:30:12;;;;;;;0.10;0.10;;;;;;;9.91;78.00;101080.28;6239704;22;20420;-75
2023/04/19 06:32:37;;;;;;;0.00;0.00;;;;;;;10.05;77.10;101091.75;6243511;22;20090;-75
2023/04/19 06:35:03;;;;;;;0.00;0.00;;;;;;;10.26;77.04;101109.31;6265583;22;20093;-75
2023/04/19 06:37:28;;;;;;;0.00;0.00;;;;;;;10.33;76.93;101117.38;6244313;22;20346;-73
2023/04/19 06:39:57;;;;;;;0.00;0.00;;;;;;;10.28;76.65;101107.19;6266130;22;20003;-78
2023/04/19 06:42:24;;;;;;;0.00;0.00;;;;;;;10.04;76.44;101083.81;6240672;22;20004;-77
2023/04/19 06:44:59;;;;;;;0.00;0.00;;;;;;;9.72;77.32;101087.03;6216879;22;20030;-77
2023/04/19 06:47:24;;;;;;;0.00;0.00;;;;;;;9.70;78.37;101121.97;6231291;22;20051;-79
2023/04/19 06:49:50;;;;;;;0.00;0.00;;;;;;;9.55;78.99;101120.59;6245444;22;20011;-78
2023/04/19 06:52:15;;;;;;;0.00;0.00;;;;;;;9.51;79.55;101119.41;6237444;22;20022;-75
2023/04/19 06:54:41;;;;;;;0.00;0.00;;;;;;;9.47;79.75;101118.22;6196263;22;20008;-76
2023/04/19 06:57:06;;;;;;;0.00;0.00;;;;;;;9.31;80.21;101108.91;6246217;22;20019;-79
2023/04/19 06:59:38;;;;;;;0.00;0.00;;;;;;;9.35;80.27;101106.53;6240183;22;20362;-77
2023/04/19 07:02:04;;;;;;;0.00;0.00;;;;;;;9.30;80.42;101095.50;6245179;22;20010;-77
2023/04/19 07:04:30;;;;;;;0.00;0.00;;;;;;;9.25;80.50;101094.31;6247351;22;20007;-78
2023/04/19 07:06:55;;;;;;;0.00;0.00;;;;;;;9.31;80.68;101105.34;6223147;22;20010;-77
2023/04/19 07:09:30;;;;;;;0.00;0.00;;;;;;;9.33;80.53;101100.47;6222626;22;20004;-78
2023/04/19 07:11:56;;;;;;;0.00;0.00;;;;;;;9.31;81.12;101108.06;6247656;22;20019;-78
2023/04/19 07:14:22;;;;;;;0.00;0.00;;;;;;;9.33;80.73;101119.56;6221996;22;20450;-77
2023/04/19 07:16:48;;;;;;;0.00;0.00;;;;;;;9.40;80.83;101123.00;6274955;22;20000;-77
2023/04/19 07:19:13;;;;;;;0.00;0.00;;;;;;;9.42;81.26;101126.34;6248208;22;20008;-78
2023/04/19 07:21:39;;;;;;;0.00;0.00;;;;;;;9.39;80.96;101111.25;6246994;22;20061;-77
2023/04/19 07:24:05;;;;;;;0.00;0.00;;;;;;;9.43;80.88;101101.53;6248437;22;20388;-78
2023/04/19 07:26:31;;;;;;;0.00;0.00;;;;;;;9.61;80.75;101133.28;6246865;22;20403;-77
2023/04/19 07:28:57;;;;;;;0.00;0.00;;;;;;;9.64;80.20;101129.25;6274273;22;20030;-76
2023/04/19 07:31:24;;;;;;;0.00;0.00;;;;;;;9.70;80.38;101121.97;6272486;22;20007;-77
2023/04/19 07:33:50;;;;;;;0.00;0.00;;;;;;;9.75;79.81;101108.41;6248209;22;20003;-78
2023/04/19 07:36:17;;;;;;;0.10;0.10;;;;;;;10.01;79.33;101111.63;6248461;22;20018;-78
2023/04/19 07:38:43;;;;;;;0.00;0.00;;;;;;;10.30;78.98;101126.91;6196429;22;20007;-78
2023/04/19 07:41:09;;;;;;;0.00;0.00;;;;;;;10.65;78.59;101136.81;6250532;22;20003;-75
2023/04/19 07:44:26;;;;;;;0.00;0.00;;;;;;;10.82;77.29;101139.53;6248239;22;20008;-76
2023/04/19 07:46:59;;;;;;;0.00;0.00;;;;;;;10.83;76.84;101118.47;6250826;22;20004;-78
2023/04/19 07:49:34;;;;;;;0.00;0.00;;;;;;;10.97;75.59;101130.72;6251372;22;20011;-78
2023/04/19 07:55:28;;;;;;;;;;;;;;;11.15;75.33;101137.00;6181135;23;20080;-77
2023/04/19 07:58:40;;;;;;;;;;;;;;;;;;;;;
2023/04/19 08:01:08;;;;;;;0.00;0.00;;;;;;;11.51;73.92;101129.25;6272205;22;20063;-78
2023/04/19 08:03:45;;;;;;;0.00;0.00;;;;;;;11.76;73.40;101131.47;6246290;22;20014;-77
2023/04/19 08:06:20;;;;;;;0.00;0.00;;;;;;;11.95;72.47;101107.31;6243412;22;20419;-77
2023/04/19 08:11:38;;;;;;;0.00;0.00;;;;;;;12.45;70.02;101105.28;6256051;22;20469;-76
2023/04/19 08:14:12;;;;;;;0.00;0.00;;;;;;;12.69;69.06;101122.22;6195249;22;20004;-77
2023/04/19 08:16:42;;;;;;;0.00;0.00;;;;;;;12.83;68.51;101128.06;6247711;22;20102;-77
2023/04/19 08:19:15;;;;;;;0.00;0.00;;;;;;;13.02;67.26;101131.19;6219696;22;20042;-77
2023/04/19 08:21:40;;;;;;;0.00;0.00;;;;;;;13.17;67.29;101121.41;6245179;22;20093;-77
2023/04/19 08:24:13;;;;;;;0.00;0.00;;;;;;;13.36;66.52;101116.31;6247346;22;20082;-78
2023/04/19 08:27:02;;;;;;;0.00;0.00;;;;;;;13.71;65.26;101131.28;6241465;22;20007;-75
2023/04/19 08:29:27;;;;;;;0.00;0.00;;;;;;;13.83;65.18;101118.13;6241444;22;20033;-76
2023/04/19 08:31:53;;;;;;;0.00;0.00;;;;;;;14.11;64.08;101140.75;6186812;22;20004;-76
2023/04/19 08:34:18;;;;;;;0.00;0.00;;;;;;;14.22;63.95;101120.41;6192689;22;20008;-77
2023/04/19 08:36:46;;;;;;;0.00;0.00;;;;;;;14.43;63.42;101124.00;6265196;22;20003;-77
2023/04/19 08:39:21;;;;;;;0.00;0.00;;;;;;;14.64;62.24;101113.00;6242881;22;19996;-77
2023/04/19 08:42:02;;;;;;;0.00;0.00;;;;;;;14.93;61.34;101112.41;6267783;22;20011;-77
2023/04/19 08:44:29;;;;;;;0.00;0.00;;;;;;;15.31;60.21;101123.88;6248911;22;20025;-78
2023/04/19 08:46:57;;;;;;;0.00;0.00;;;;;;;15.95;58.47;101099.34;6277681;22;20065;-76
2023/04/19 08:49:23;;;;;;;0.00;0.00;;;;;;;17.31;55.34;101132.66;6277783;22;20068;-76
2023/04/19 08:51:56;;;;;;;0.00;0.00;;;;;;;18.81;51.43;101120.25;6246277;22;20039;-77
2023/04/19 08:54:27;;;;;;;0.00;0.00;;;;;;;19.94;47.71;101129.09;6243905;22;20431;-78
2023/04/19 08:56:57;;;;;;;0.00;0.00;;;;;;;20.45;46.42;101143.72;6198067;22;20124;-78
2023/04/19 08:59:33;;;;;;;0.00;0.00;;;;;;;22.82;41.55;101126.50;6244144;22;20008;-77
2023/04/19 09:02:09;;;;;;;0.00;0.00;;;;;;;23.65;38.61;101141.06;6221791;22;20038;-78
2023/04/19 09:04:36;;;;;;;0.00;0.00;;;;;;;23.75;37.09;101139.88;6243386;22;20095;-78
2023/04/19 09:07:02;;;;;;;0.00;0.00;;;;;;;24.49;36.68;101134.72;6222704;22;20003;-76
2023/04/19 09:09:32;;;;;;;0.00;0.00;;;;;;;24.88;35.70;101143.72;6244915;22;20014;-77
2023/04/19 09:11:58;;;;;;;0.00;0.00;;;;;;;25.73;33.91;101146.09;6276252;22;20486;-77
2023/04/19 09:14:35;;;;;;;0.00;0.00;;;;;;;26.62;33.26;101153.56;6197420;22;20085;-78
2023/04/19 09:17:17;;;;;;;0.00;0.00;;;;;;;26.38;33.69;101164.88;6246574;22;20010;-78
2023/04/19 09:19:58;;;;;;;0.00;0.00;;;;;;;25.91;33.19;101139.06;6270801;22;20258;-77
2023/04/19 09:22:26;;;;;;;0.00;0.00;;;;;;;24.18;34.71;101113.63;6221589;22;20004;-77
2023/04/19 09:24:56;;;;;;;0.00;0.00;;;;;;;23.07;37.16;101142.66;6248091;22;20008;-79
2023/04/19 09:27:35;;;;;;;0.00;0.00;;;;;;;22.73;37.91;101120.13;6277956;22;20488;-78
2023/04/19 09:30:03;;;;;;;0.00;0.00;;;;;;;22.64;37.34;101142.44;6249665;22;20000;-80
2023/04/19 09:32:44;;;;;;;0.00;0.00;;;;;;;21.51;39.28;101120.09;6250663;22;20031;-78
2023/04/19 09:35:10;;;;;;;0.00;0.00;;;;;;;21.76;39.53;101119.31;6249911;22;20012;-78
2023/04/19 09:37:40;;;;;;;0.00;0.00;;;;;;;22.51;38.15;101126.72;6225243;22;20166;-77
2023/04/19 09:40:25;;;;;;;0.00;0.00;;;;;;;23.37;37.11;101146.34;6251491;22;20008;-77
2023/04/19 09:42:51;;;;;;;0.00;0.00;;;;;;;24.08;36.33;101125.22;6277691;22;20011;-76
2023/04/19 09:45:16;;;;;;;0.00;0.00;;;;;;;26.23;32.99;101130.81;6224997;22;20008;-77
2023/04/19 09:47:42;;;;;;;0.00;0.00;;;;;;;27.36;30.61;101126.22;6225103;22;20086;-77
2023/04/19 09:50:09;;;;;;;0.00;0.00;;;;;;;29.91;27.67;101135.94;6250531;22;20015;-80
2023/04/19 09:52:35;;;;;;;0.00;0.00;;;;;;;32.64;25.93;101145.06;6276277;22;20371;-77
2023/04/19 09:55:05;;;;;;;0.00;0.00;;;;;;;35.34;21.98;101141.41;6277386;22;20066;-78
2023/04/19 09:57:32;;;;;;;0.00;0.00;;;;;;;33.64;21.36;101132.13;6277169;22;20418;-78
2023/04/19 09:59:59;;;;;;;0.00;0.00;;;;;;;30.29;24.88;101131.19;6277141;22;19999;-76
2023/04/19 10:02:29;;;;;;;0.00;0.00;;;;;;;27.45;27.16;101104.38;6250033;22;20027;-76
2023/04/19 10:04:56;;;;;;;0.00;0.00;;;;;;;27.45;29.57;101095.94;6249931;22;20442;-76
2023/04/19 10:07:22;;;;;;;0.00;0.00;;;;;;;31.35;25.59;101120.53;6250560;22;19996;-76
2023/04/19 10:09:50;;;;;;;0.00;0.00;;;;;;;34.01;21.31;101108.97;6275316;22;20014;-77
2023/04/19 10:12:16;;;;;;;0.00;0.00;;;;;;;33.12;21.65;101107.91;6249534;22;20188;-78
2023/04/19 10:14:44;;;;;;;0.00;0.00;;;;;;;32.24;22.29;101115.81;6276118;22;20004;-76
2023/04/19 10:17:11;;;;;;;0.00;0.00;;;;;;;30.76;24.51;101087.34;6277461;22;20362;-77
2023/04/19 10:19:39;;;;;;;0.00;0.00;;;;;;;32.59;22.78;101086.00;6276326;22;20000;-78
2023/04/19 10:22:06;;;;;;;0.00;0.00;;;;;;;34.37;21.80;101103.09;6225738;22;20130;-77
2023/04/19 10:24:32;;;;;;;0.00;0.00;;;;;;;35.82;19.65;101088.47;6198216;22;20099;-77
2023/04/19 10:27:12;;;;;;;0.00;0.00;;;;;;;36.95;18.47;101083.63;6249627;22;19999;-77
2023/04/19 10:30:03;;;;;;;0.00;0.00;;;;;;;37.66;17.49;101092.13;6248814;22;20010;-78
2023/04/19 10:32:35;;;;;;;0.00;0.00;;;;;;;38.60;16.79;101090.09;6250203;22;20003;-77
2023/04/19 10:35:04;;;;;;;0.00;0.00;;;;;;;38.31;16.54;101082.22;6225347;22;20011;-77
2023/04/19 10:37:30;;;;;;;0.00;0.00;;;;;;;38.68;16.38;101087.91;6225006;22;20004;-77
2023/04/19 10:39:56;;;;;;;0.00;0.00;;;;;;;39.26;15.75;101082.31;6276169;22;20484;-77
2023/04/19 10:42:21;;;;;;;0.00;0.00;;;;;;;39.71;15.05;101100.72;6249556;22;20004;-76
2023/04/19 10:45:25;;;;;;;0.00;0.00;;;;;;;37.07;16.79;101095.66;6276383;22;20464;-77
2023/04/19 10:47:51;;;;;;;0.00;0.00;;;;;;;35.42;18.41;101083.22;6248919;22;20015;-77
2023/04/19 10:50:17;;;;;;;0.00;0.00;;;;;;;35.95;17.85;101055.41;6276054;22;20012;-76
2023/04/19 10:52:42;;;;;;;0.00;0.00;;;;;;;36.48;17.91;101083.56;6248068;22;20003;-78
2023/04/19 10:55:08;;;;;;;0.00;0.00;;;;;;;37.08;17.89;101080.16;6248519;22;20009;-77
2023/04/19 10:58:02;;;;;;;0.00;0.00;;;;;;;35.13;18.22;101074.16;6247608;22;20015;-76
2023/04/19 11:00:47;;;;;;;;;;;;;;;;;;;;;
2023/04/19 11:03:45;;;;;;;0.00;0.00;;;;;;;34.60;19.81;101084.72;6276612;22;20070;-77
2023/04/19 11:06:19;;;;;;;0.00;0.00;;;;;;;37.83;17.21;101080.81;6248050;22;20011;-76
2023/04/19 11:08:44;;;;;;;;;;;;;;;39.05;16.17;101068.59;6276568;22;20000;-78
2023/04/19 11:11:10;;;;;;;0.00;0.00;;;;;;;40.41;14.68;101063.84;6247714;22;19981;-77
2023/04/19 11:13:36;;;;;;;0.00;0.00;;;;;;;38.46;15.76;101081.88;6245517;22;20413;-77
2023/04/19 11:16:20;;;;;;;;;;;;;;;;;;;;;
2023/04/19 11:18:48;;;;;;;0.00;0.00;;;;;;;31.19;20.83;101040.94;6250582;22;20090;-79
2023/04/19 11:21:30;;;;;;;0.00;0.00;;;;;;;29.69;23.02;101039.78;6216985;22;20010;-79
2023/04/19 11:24:09;;;;;;;0.00;0.00;;;;;;;28.82;24.00;101031.25;6221131;22;20011;-79
2023/04/19 11:26:35;;;;;;;0.00;0.00;;;;;;;28.21;24.65;101039.38;6271226;22;20003;-79
2023/04/19 11:29:13;;;;;;;;;;;;;;;;;;;;;
2023/04/19 11:31:39;;;;;;;0.00;0.00;;;;;;;26.26;28.44;101009.56;6275018;22;20074;-80
2023/04/19 11:34:18;;;;;;;0.00;0.00;;;;;;;29.99;25.29;101050.25;6276716;22;20030;-79
2023/04/19 11:37:02;;;;;;;0.00;0.00;;;;;;;32.24;21.76;101050.75;6225375;22;20337;-80
2023/04/19 11:39:27;;;;;;;0.00;0.00;;;;;;;33.35;20.30;101027.31;6248595;22;20014;-81
2023/04/19 11:42:03;;;;;;;0.00;0.00;;;;;;;33.16;20.11;101029.38;6275841;22;20079;-79
2023/04/19 11:44:37;;;;;;;0.00;0.00;;;;;;;31.67;21.21;100999.25;6248205;22;19999;-79
2023/04/19 11:50:32;;;;;;;0.00;0.00;;;;;;;28.04;24.39;100990.88;6255086;22;20457;-80
2023/04/19 11:52:58;;;;;;;0.00;0.00;;;;;;;26.88;25.50;101013.97;6246938;22;20035;-79